sensor_id;sensor_type;location;lat;lon;timestamp;P1;durP1;ratioP1;P2;durP2;ratioP2
67100;SDS011;54019;61.746;16.106;2023-02-18T00:01:26;0.90;;;0.10;;
67100;SDS011;54019;61.746;16.106;2023-02-18T00:03:53;0.10;;;0.10;;
67100;SDS011;54019;61.746;16.106;2023-02-18T00:06:20;1.15;;;0.10;;
67100;SDS011;54019;61.746;16.106;2023-02-18T00:08:48;0.10;;;0.10;;
67100;SDS011;54019;61.746;16.106;2023-02-18T00:11:14;0.20;;;0.10;;
67100;SDS011;54019;61.746;16.106;2023-02-18T00:13:41;0.10;;;0.10;;
67100;SDS011;54019;61.746;16.106;2023-02-18T00:16:11;0.08;;;0.08;;
67100;SDS011;54019;61.746;16.106;2023-02-18T00:18:37;0.00;;;0.00;;
67100;SDS011;54019;61.746;16.106;2023-02-18T00:21:05;0.10;;;0.10;;
67100;SDS011;54019;61.746;16.106;2023-02-18T00:23:32;0.15;;;0.15;;
67100;SDS011;54019;61.746;16.106;2023-02-18T00:25:58;0.10;;;0.10;;
67100;SDS011;54019;61.746;16.106;2023-02-18T00:28:25;0.00;;;0.00;;
67100;SDS011;54019;61.746;16.106;2023-02-18T00:30:51;0.10;;;0.10;;
67100;SDS011;54019;61.746;16.106;2023-02-18T00:33:16;0.10;;;0.10;;
67100;SDS011;54019;61.746;16.106;2023-02-18T00:35:42;0.17;;;0.10;;
67100;SDS011;54019;61.746;16.106;2023-02-18T00:38:09;0.20;;;0.10;;
67100;SDS011;54019;61.746;16.106;2023-02-18T00:40:36;0.10;;;0.10;;
67100;SDS011;54019;61.746;16.106;2023-02-18T00:43:01;0.10;;;0.10;;
67100;SDS011;54019;61.746;16.106;2023-02-18T00:45:27;0.00;;;0.00;;
67100;SDS011;54019;61.746;16.106;2023-02-18T00:47:53;0.10;;;0.10;;
67100;SDS011;54019;61.746;16.106;2023-02-18T00:50:19;0.10;;;0.10;;
67100;SDS011;54019;61.746;16.106;2023-02-18T00:52:45;0.10;;;0.00;;
67100;SDS011;54019;61.746;16.106;2023-02-18T00:55:12;0.00;;;0.00;;
67100;SDS011;54019;61.746;16.106;2023-02-18T00:57:38;0.10;;;0.10;;
67100;SDS011;54019;61.746;16.106;2023-02-18T01:00:05;0.20;;;0.03;;
67100;SDS011;54019;61.746;16.106;2023-02-18T01:02:31;0.08;;;0.08;;
67100;SDS011;54019;61.746;16.106;2023-02-18T01:04:57;0.17;;;0.10;;
67100;SDS011;54019;61.746;16.106;2023-02-18T01:07:23;0.10;;;0.10;;
67100;SDS011;54019;61.746;16.106;2023-02-18T01:09:49;0.10;;;0.10;;
67100;SDS011;54019;61.746;16.106;2023-02-18T01:12:16;0.10;;;0.10;;
67100;SDS011;54019;61.746;16.106;2023-02-18T01:14:42;0.10;;;0.10;;
67100;SDS011;54019;61.746;16.106;2023-02-18T01:17:08;0.13;;;0.10;;
67100;SDS011;54019;61.746;16.106;2023-02-18T01:19:34;0.00;;;0.00;;
67100;SDS011;54019;61.746;16.106;2023-02-18T01:22:00;0.10;;;0.10;;
67100;SDS011;54019;61.746;16.106;2023-02-18T01:24:26;0.10;;;0.10;;
67100;SDS011;54019;61.746;16.106;2023-02-18T01:26:52;0.10;;;0.10;;
67100;SDS011;54019;61.746;16.106;2023-02-18T01:29:19;0.28;;;0.10;;
67100;SDS011;54019;61.746;16.106;2023-02-18T01:31:45;0.15;;;0.10;;
67100;SDS011;54019;61.746;16.106;2023-02-18T01:34:10;0.20;;;0.10;;
67100;SDS011;54019;61.746;16.106;2023-02-18T01:36:36;0.20;;;0.10;;
67100;SDS011;54019;61.746;16.106;2023-02-18T01:39:03;0.10;;;0.10;;
67100;SDS011;54019;61.746;16.106;2023-02-18T01:41:29;0.20;;;0.00;;
67100;SDS011;54019;61.746;16.106;2023-02-18T01:44:11;0.10;;;0.10;;
67100;SDS011;54019;61.746;16.106;2023-02-18T01:46:39;0.35;;;0.10;;
67100;SDS011;54019;61.746;16.106;2023-02-18T01:49:05;0.22;;;0.10;;
67100;SDS011;54019;61.746;16.106;2023-02-18T01:51:33;0.10;;;0.10;;
67100;SDS011;54019;61.746;16.106;2023-02-18T01:54:03;0.10;;;0.10;;
67100;SDS011;54019;61.746;16.106;2023-02-18T01:56:34;0.10;;;0.10;;
67100;SDS011;54019;61.746;16.106;2023-02-18T01:59:05;0.10;;;0.10;;
67100;SDS011;54019;61.746;16.106;2023-02-18T02:01:33;0.00;;;0.00;;
67100;SDS011;54019;61.746;16.106;2023-02-18T02:04:01;0.00;;;0.00;;
67100;SDS011;54019;61.746;16.106;2023-02-18T02:06:27;0.10;;;0.10;;
67100;SDS011;54019;61.746;16.106;2023-02-18T02:08:53;0.00;;;0.00;;
67100;SDS011;54019;61.746;16.106;2023-02-18T02:11:24;0.08;;;0.08;;
67100;SDS011;54019;61.746;16.106;2023-02-18T02:14:12;0.55;;;0.10;;
67100;SDS011;54019;61.746;16.106;2023-02-18T02:16:49;0.10;;;0.10;;
67100;SDS011;54019;61.746;16.106;2023-02-18T02:19:28;0.73;;;0.10;;
67100;SDS011;54019;61.746;16.106;2023-02-18T02:28:39;0.10;;;0.10;;
67100;SDS011;54019;61.746;16.106;2023-02-18T02:34:36;0.10;;;0.10;;
67100;SDS011;54019;61.746;16.106;2023-02-18T02:37:13;0.13;;;0.10;;
67100;SDS011;54019;61.746;16.106;2023-02-18T02:39:43;0.10;;;0.10;;
67100;SDS011;54019;61.746;16.106;2023-02-18T02:42:23;0.10;;;0.10;;
67100;SDS011;54019;61.746;16.106;2023-02-18T02:44:54;0.20;;;0.08;;
67100;SDS011;54019;61.746;16.106;2023-02-18T02:47:27;0.10;;;0.10;;
67100;SDS011;54019;61.746;16.106;2023-02-18T02:50:02;0.00;;;0.00;;
67100;SDS011;54019;61.746;16.106;2023-02-18T02:52:31;0.30;;;0.10;;
67100;SDS011;54019;61.746;16.106;2023-02-18T02:55:02;0.43;;;0.00;;
67100;SDS011;54019;61.746;16.106;2023-02-18T02:57:43;0.10;;;0.10;;
67100;SDS011;54019;61.746;16.106;2023-02-18T03:00:11;0.60;;;0.10;;
67100;SDS011;54019;61.746;16.106;2023-02-18T03:02:41;0.10;;;0.10;;
67100;SDS011;54019;61.746;16.106;2023-02-18T03:05:32;0.00;;;0.00;;
67100;SDS011;54019;61.746;16.106;2023-02-18T03:08:11;0.90;;;0.00;;
67100;SDS011;54019;61.746;16.106;2023-02-18T03:10:50;0.03;;;0.03;;
67100;SDS011;54019;61.746;16.106;2023-02-18T03:13:24;0.00;;;0.00;;
67100;SDS011;54019;61.746;16.106;2023-02-18T03:15:58;0.28;;;0.10;;
67100;SDS011;54019;61.746;16.106;2023-02-18T03:18:34;0.13;;;0.10;;
67100;SDS011;54019;61.746;16.106;2023-02-18T03:21:07;0.40;;;0.10;;
67100;SDS011;54019;61.746;16.106;2023-02-18T03:23:37;0.90;;;0.10;;
67100;SDS011;54019;61.746;16.106;2023-02-18T03:26:07;0.10;;;0.10;;
67100;SDS011;54019;61.746;16.106;2023-02-18T03:28:35;0.70;;;0.10;;
67100;SDS011;54019;61.746;16.106;2023-02-18T03:31:03;0.95;;;0.10;;
67100;SDS011;54019;61.746;16.106;2023-02-18T03:33:32;0.20;;;0.10;;
67100;SDS011;54019;61.746;16.106;2023-02-18T03:36:02;0.10;;;0.10;;
67100;SDS011;54019;61.746;16.106;2023-02-18T03:38:30;0.95;;;0.10;;
67100;SDS011;54019;61.746;16.106;2023-02-18T03:41:02;0.10;;;0.10;;
67100;SDS011;54019;61.746;16.106;2023-02-18T03:43:28;0.28;;;0.10;;
67100;SDS011;54019;61.746;16.106;2023-02-18T03:45:54;0.85;;;0.10;;
67100;SDS011;54019;61.746;16.106;2023-02-18T03:48:20;0.03;;;0.03;;
67100;SDS011;54019;61.746;16.106;2023-02-18T03:50:46;0.13;;;0.10;;
67100;SDS011;54019;61.746;16.106;2023-02-18T03:53:11;0.10;;;0.10;;
67100;SDS011;54019;61.746;16.106;2023-02-18T03:55:38;0.63;;;0.10;;
67100;SDS011;54019;61.746;16.106;2023-02-18T03:58:04;0.10;;;0.10;;
67100;SDS011;54019;61.746;16.106;2023-02-18T04:00:30;0.10;;;0.10;;
67100;SDS011;54019;61.746;16.106;2023-02-18T04:02:56;0.13;;;0.10;;
67100;SDS011;54019;61.746;16.106;2023-02-18T04:05:22;0.10;;;0.10;;
67100;SDS011;54019;61.746;16.106;2023-02-18T04:07:48;0.10;;;0.10;;
67100;SDS011;54019;61.746;16.106;2023-02-18T04:10:13;0.10;;;0.10;;
67100;SDS011;54019;61.746;16.106;2023-02-18T04:12:41;0.10;;;0.10;;
67100;SDS011;54019;61.746;16.106;2023-02-18T04:15:07;1.75;;;0.10;;
67100;SDS011;54019;61.746;16.106;2023-02-18T04:17:33;1.38;;;0.10;;
67100;SDS011;54019;61.746;16.106;2023-02-18T04:19:59;0.10;;;0.10;;
67100;SDS011;54019;61.746;16.106;2023-02-18T04:22:25;1.20;;;0.10;;
67100;SDS011;54019;61.746;16.106;2023-02-18T04:24:50;0.32;;;0.10;;
67100;SDS011;54019;61.746;16.106;2023-02-18T04:27:16;0.63;;;0.00;;
67100;SDS011;54019;61.746;16.106;2023-02-18T04:29:43;0.20;;;0.13;;
67100;SDS011;54019;61.746;16.106;2023-02-18T04:32:09;0.13;;;0.10;;
67100;SDS011;54019;61.746;16.106;2023-02-18T04:34:35;0.20;;;0.00;;
67100;SDS011;54019;61.746;16.106;2023-02-18T04:37:01;0.75;;;0.10;;
67100;SDS011;54019;61.746;16.106;2023-02-18T04:39:26;0.10;;;0.10;;
67100;SDS011;54019;61.746;16.106;2023-02-18T04:41:52;0.10;;;0.10;;
67100;SDS011;54019;61.746;16.106;2023-02-18T04:44:18;0.60;;;0.10;;
67100;SDS011;54019;61.746;16.106;2023-02-18T04:46:45;0.10;;;0.10;;
67100;SDS011;54019;61.746;16.106;2023-02-18T04:49:11;0.20;;;0.20;;
67100;SDS011;54019;61.746;16.106;2023-02-18T04:51:37;0.10;;;0.10;;
67100;SDS011;54019;61.746;16.106;2023-02-18T04:54:03;0.20;;;0.10;;
67100;SDS011;54019;61.746;16.106;2023-02-18T04:56:28;0.20;;;0.20;;
67100;SDS011;54019;61.746;16.106;2023-02-18T04:58:54;0.10;;;0.10;;
67100;SDS011;54019;61.746;16.106;2023-02-18T05:01:20;0.90;;;0.10;;
67100;SDS011;54019;61.746;16.106;2023-02-18T05:03:47;0.63;;;0.10;;
67100;SDS011;54019;61.746;16.106;2023-02-18T05:06:13;0.10;;;0.10;;
67100;SDS011;54019;61.746;16.106;2023-02-18T05:08:39;0.20;;;0.20;;
67100;SDS011;54019;61.746;16.106;2023-02-18T05:11:05;1.35;;;0.10;;
67100;SDS011;54019;61.746;16.106;2023-02-18T05:13:31;0.10;;;0.10;;
67100;SDS011;54019;61.746;16.106;2023-02-18T05:15:57;0.10;;;0.10;;
67100;SDS011;54019;61.746;16.106;2023-02-18T05:18:23;0.30;;;0.10;;
67100;SDS011;54019;61.746;16.106;2023-02-18T05:20:50;0.22;;;0.10;;
67100;SDS011;54019;61.746;16.106;2023-02-18T05:23:16;0.10;;;0.10;;
67100;SDS011;54019;61.746;16.106;2023-02-18T05:25:41;0.10;;;0.10;;
67100;SDS011;54019;61.746;16.106;2023-02-18T05:28:07;0.10;;;0.10;;
67100;SDS011;54019;61.746;16.106;2023-02-18T05:30:33;0.47;;;0.10;;
67100;SDS011;54019;61.746;16.106;2023-02-18T05:32:59;1.48;;;0.13;;
67100;SDS011;54019;61.746;16.106;2023-02-18T05:35:24;1.15;;;0.20;;
67100;SDS011;54019;61.746;16.106;2023-02-18T05:37:52;0.45;;;0.10;;
67100;SDS011;54019;61.746;16.106;2023-02-18T05:40:17;2.10;;;0.15;;
67100;SDS011;54019;61.746;16.106;2023-02-18T05:42:43;0.20;;;0.20;;
67100;SDS011;54019;61.746;16.106;2023-02-18T05:45:09;1.17;;;0.15;;
67100;SDS011;54019;61.746;16.106;2023-02-18T05:47:35;0.40;;;0.20;;
67100;SDS011;54019;61.746;16.106;2023-02-18T05:50:01;0.90;;;0.15;;
67100;SDS011;54019;61.746;16.106;2023-02-18T05:52:27;7.40;;;0.30;;
67100;SDS011;54019;61.746;16.106;2023-02-18T05:54:54;2.10;;;0.15;;
67100;SDS011;54019;61.746;16.106;2023-02-18T05:57:20;2.47;;;0.22;;
67100;SDS011;54019;61.746;16.106;2023-02-18T05:59:46;0.98;;;0.20;;
67100;SDS011;54019;61.746;16.106;2023-02-18T06:02:12;1.08;;;0.10;;
67100;SDS011;54019;61.746;16.106;2023-02-18T06:04:37;3.30;;;0.20;;
67100;SDS011;54019;61.746;16.106;2023-02-18T06:07:03;0.88;;;0.28;;
67100;SDS011;54019;61.746;16.106;2023-02-18T06:09:29;1.60;;;0.20;;
67100;SDS011;54019;61.746;16.106;2023-02-18T06:11:56;1.17;;;0.20;;
67100;SDS011;54019;61.746;16.106;2023-02-18T06:14:22;0.20;;;0.20;;
67100;SDS011;54019;61.746;16.106;2023-02-18T06:16:48;0.30;;;0.30;;
67100;SDS011;54019;61.746;16.106;2023-02-18T06:19:14;2.70;;;0.20;;
67100;SDS011;54019;61.746;16.106;2023-02-18T06:21:40;0.35;;;0.20;;
67100;SDS011;54019;61.746;16.106;2023-02-18T06:24:06;1.85;;;0.22;;
67100;SDS011;54019;61.746;16.106;2023-02-18T06:26:32;1.75;;;0.10;;
67100;SDS011;54019;61.746;16.106;2023-02-18T06:28:59;2.35;;;0.68;;
67100;SDS011;54019;61.746;16.106;2023-02-18T06:31:25;1.50;;;0.50;;
67100;SDS011;54019;61.746;16.106;2023-02-18T06:33:50;2.17;;;0.60;;
67100;SDS011;54019;61.746;16.106;2023-02-18T06:36:16;1.17;;;0.60;;
67100;SDS011;54019;61.746;16.106;2023-02-18T06:38:43;1.73;;;0.68;;
67100;SDS011;54019;61.746;16.106;2023-02-18T06:41:10;1.92;;;0.77;;
67100;SDS011;54019;61.746;16.106;2023-02-18T06:43:37;1.75;;;0.80;;
67100;SDS011;54019;61.746;16.106;2023-02-18T06:46:04;1.65;;;0.80;;
67100;SDS011;54019;61.746;16.106;2023-02-18T06:48:31;6.38;;;0.88;;
67100;SDS011;54019;61.746;16.106;2023-02-18T06:50:57;4.65;;;0.80;;
67100;SDS011;54019;61.746;16.106;2023-02-18T06:53:24;4.18;;;0.80;;
67100;SDS011;54019;61.746;16.106;2023-02-18T06:55:50;6.03;;;1.00;;
67100;SDS011;54019;61.746;16.106;2023-02-18T06:58:15;2.38;;;0.80;;
67100;SDS011;54019;61.746;16.106;2023-02-18T07:00:41;6.53;;;1.00;;
67100;SDS011;54019;61.746;16.106;2023-02-18T07:03:09;3.97;;;1.13;;
67100;SDS011;54019;61.746;16.106;2023-02-18T07:05:35;2.13;;;0.73;;
67100;SDS011;54019;61.746;16.106;2023-02-18T07:08:01;2.05;;;0.77;;
67100;SDS011;54019;61.746;16.106;2023-02-18T07:10:27;2.13;;;0.80;;
67100;SDS011;54019;61.746;16.106;2023-02-18T07:12:52;2.15;;;0.70;;
67100;SDS011;54019;61.746;16.106;2023-02-18T07:15:18;5.47;;;0.98;;
67100;SDS011;54019;61.746;16.106;2023-02-18T07:17:44;2.15;;;0.70;;
67100;SDS011;54019;61.746;16.106;2023-02-18T07:20:11;1.40;;;0.68;;
67100;SDS011;54019;61.746;16.106;2023-02-18T07:22:37;0.75;;;0.50;;
67100;SDS011;54019;61.746;16.106;2023-02-18T07:25:03;1.13;;;0.50;;
67100;SDS011;54019;61.746;16.106;2023-02-18T07:27:29;1.23;;;0.60;;
67100;SDS011;54019;61.746;16.106;2023-02-18T07:29:55;1.60;;;0.60;;
67100;SDS011;54019;61.746;16.106;2023-02-18T07:32:21;2.17;;;0.60;;
67100;SDS011;54019;61.746;16.106;2023-02-18T07:34:46;1.77;;;0.52;;
67100;SDS011;54019;61.746;16.106;2023-02-18T07:37:13;2.72;;;0.60;;
67100;SDS011;54019;61.746;16.106;2023-02-18T07:39:39;2.67;;;0.60;;
67100;SDS011;54019;61.746;16.106;2023-02-18T07:42:06;1.33;;;0.57;;
67100;SDS011;54019;61.746;16.106;2023-02-18T07:44:32;1.42;;;0.50;;
67100;SDS011;54019;61.746;16.106;2023-02-18T07:46:58;1.02;;;0.50;;
67100;SDS011;54019;61.746;16.106;2023-02-18T07:49:23;1.95;;;0.50;;
67100;SDS011;54019;61.746;16.106;2023-02-18T07:51:49;2.88;;;0.50;;
67100;SDS011;54019;61.746;16.106;2023-02-18T07:54:17;1.77;;;0.82;;
67100;SDS011;54019;61.746;16.106;2023-02-18T07:56:43;1.00;;;0.32;;
67100;SDS011;54019;61.746;16.106;2023-02-18T07:59:09;1.38;;;0.40;;
67100;SDS011;54019;61.746;16.106;2023-02-18T08:01:35;1.98;;;0.52;;
67100;SDS011;54019;61.746;16.106;2023-02-18T08:04:00;0.65;;;0.40;;
67100;SDS011;54019;61.746;16.106;2023-02-18T08:06:27;0.73;;;0.40;;
67100;SDS011;54019;61.746;16.106;2023-02-18T08:08:57;1.85;;;0.35;;
67100;SDS011;54019;61.746;16.106;2023-02-18T08:11:24;1.42;;;0.47;;
67100;SDS011;54019;61.746;16.106;2023-02-18T08:13:50;0.25;;;0.22;;
67100;SDS011;54019;61.746;16.106;2023-02-18T08:16:16;0.77;;;0.30;;
67100;SDS011;54019;61.746;16.106;2023-02-18T08:18:43;0.70;;;0.40;;
67100;SDS011;54019;61.746;16.106;2023-02-18T08:21:09;1.55;;;0.30;;
67100;SDS011;54019;61.746;16.106;2023-02-18T08:23:35;1.17;;;0.40;;
67100;SDS011;54019;61.746;16.106;2023-02-18T08:26:01;1.00;;;0.50;;
67100;SDS011;54019;61.746;16.106;2023-02-18T08:28:28;1.25;;;0.40;;
67100;SDS011;54019;61.746;16.106;2023-02-18T08:30:54;11.93;;;1.48;;
67100;SDS011;54019;61.746;16.106;2023-02-18T08:33:20;3.22;;;0.50;;
67100;SDS011;54019;61.746;16.106;2023-02-18T08:35:46;4.80;;;0.50;;
67100;SDS011;54019;61.746;16.106;2023-02-18T08:38:14;6.25;;;0.82;;
67100;SDS011;54019;61.746;16.106;2023-02-18T08:40:40;8.18;;;0.95;;
67100;SDS011;54019;61.746;16.106;2023-02-18T08:43:06;12.38;;;0.90;;
67100;SDS011;54019;61.746;16.106;2023-02-18T08:45:33;6.15;;;0.68;;
67100;SDS011;54019;61.746;16.106;2023-02-18T08:48:00;8.02;;;1.20;;
67100;SDS011;54019;61.746;16.106;2023-02-18T08:50:26;8.55;;;0.60;;
67100;SDS011;54019;61.746;16.106;2023-02-18T08:52:52;5.80;;;0.68;;
67100;SDS011;54019;61.746;16.106;2023-02-18T08:55:18;3.08;;;0.85;;
67100;SDS011;54019;61.746;16.106;2023-02-18T08:57:44;7.25;;;0.70;;
67100;SDS011;54019;61.746;16.106;2023-02-18T09:00:10;7.88;;;0.70;;
67100;SDS011;54019;61.746;16.106;2023-02-18T09:02:38;9.85;;;0.80;;
67100;SDS011;54019;61.746;16.106;2023-02-18T09:05:04;13.00;;;1.15;;
67100;SDS011;54019;61.746;16.106;2023-02-18T09:07:30;8.77;;;0.70;;
67100;SDS011;54019;61.746;16.106;2023-02-18T09:09:56;4.53;;;0.60;;
67100;SDS011;54019;61.746;16.106;2023-02-18T09:12:22;6.35;;;0.75;;
67100;SDS011;54019;61.746;16.106;2023-02-18T09:14:48;4.22;;;0.50;;
67100;SDS011;54019;61.746;16.106;2023-02-18T09:17:13;8.00;;;0.50;;
67100;SDS011;54019;61.746;16.106;2023-02-18T09:19:40;4.88;;;0.40;;
67100;SDS011;54019;61.746;16.106;2023-02-18T09:22:06;3.85;;;0.40;;
67100;SDS011;54019;61.746;16.106;2023-02-18T09:24:35;3.53;;;0.50;;
67100;SDS011;54019;61.746;16.106;2023-02-18T09:27:02;9.70;;;0.80;;
67100;SDS011;54019;61.746;16.106;2023-02-18T09:29:27;8.10;;;0.60;;
67100;SDS011;54019;61.746;16.106;2023-02-18T09:31:53;11.48;;;0.60;;
67100;SDS011;54019;61.746;16.106;2023-02-18T09:34:19;14.77;;;0.80;;
67100;SDS011;54019;61.746;16.106;2023-02-18T09:36:46;3.78;;;0.60;;
67100;SDS011;54019;61.746;16.106;2023-02-18T09:39:12;1.50;;;0.35;;
67100;SDS011;54019;61.746;16.106;2023-02-18T09:41:38;5.68;;;0.50;;
67100;SDS011;54019;61.746;16.106;2023-02-18T09:44:09;2.75;;;0.60;;
67100;SDS011;54019;61.746;16.106;2023-02-18T09:46:38;3.85;;;0.40;;
67100;SDS011;54019;61.746;16.106;2023-02-18T09:49:07;1.17;;;0.30;;
67100;SDS011;54019;61.746;16.106;2023-02-18T09:51:39;2.78;;;0.35;;
67100;SDS011;54019;61.746;16.106;2023-02-18T09:54:08;2.20;;;0.20;;
67100;SDS011;54019;61.746;16.106;2023-02-18T09:56:34;3.45;;;0.30;;
67100;SDS011;54019;61.746;16.106;2023-02-18T09:59:02;1.00;;;0.28;;
67100;SDS011;54019;61.746;16.106;2023-02-18T10:01:31;2.72;;;0.30;;
67100;SDS011;54019;61.746;16.106;2023-02-18T10:04:00;5.95;;;0.32;;
67100;SDS011;54019;61.746;16.106;2023-02-18T10:06:29;11.13;;;1.20;;
67100;SDS011;54019;61.746;16.106;2023-02-18T10:08:58;5.57;;;1.08;;
67100;SDS011;54019;61.746;16.106;2023-02-18T10:11:29;7.20;;;0.88;;
67100;SDS011;54019;61.746;16.106;2023-02-18T10:13:57;7.03;;;1.10;;
67100;SDS011;54019;61.746;16.106;2023-02-18T10:16:24;5.80;;;0.80;;
67100;SDS011;54019;61.746;16.106;2023-02-18T10:18:52;6.22;;;1.17;;
67100;SDS011;54019;61.746;16.106;2023-02-18T10:21:21;6.05;;;1.00;;
67100;SDS011;54019;61.746;16.106;2023-02-18T10:23:52;4.15;;;0.70;;
67100;SDS011;54019;61.746;16.106;2023-02-18T10:26:23;4.45;;;0.80;;
67100;SDS011;54019;61.746;16.106;2023-02-18T10:28:50;6.53;;;0.73;;
67100;SDS011;54019;61.746;16.106;2023-02-18T10:31:17;4.53;;;0.80;;
67100;SDS011;54019;61.746;16.106;2023-02-18T10:33:51;3.83;;;0.68;;
67100;SDS011;54019;61.746;16.106;2023-02-18T10:36:23;8.38;;;0.60;;
67100;SDS011;54019;61.746;16.106;2023-02-18T10:38:55;3.50;;;0.57;;
67100;SDS011;54019;61.746;16.106;2023-02-18T10:41:43;1.67;;;0.60;;
67100;SDS011;54019;61.746;16.106;2023-02-18T10:44:19;1.85;;;0.75;;
67100;SDS011;54019;61.746;16.106;2023-02-18T10:46:52;2.03;;;0.30;;
67100;SDS011;54019;61.746;16.106;2023-02-18T10:49:37;0.47;;;0.30;;
67100;SDS011;54019;61.746;16.106;2023-02-18T10:52:16;1.65;;;0.40;;
67100;SDS011;54019;61.746;16.106;2023-02-18T10:54:48;3.50;;;0.52;;
67100;SDS011;54019;61.746;16.106;2023-02-18T10:57:16;3.20;;;0.40;;
67100;SDS011;54019;61.746;16.106;2023-02-18T10:59:46;4.75;;;0.60;;
67100;SDS011;54019;61.746;16.106;2023-02-18T11:02:19;3.33;;;0.68;;
67100;SDS011;54019;61.746;16.106;2023-02-18T11:04:48;1.23;;;0.50;;
67100;SDS011;54019;61.746;16.106;2023-02-18T11:07:15;3.25;;;0.40;;
67100;SDS011;54019;61.746;16.106;2023-02-18T11:09:45;7.15;;;0.35;;
67100;SDS011;54019;61.746;16.106;2023-02-18T11:12:13;5.13;;;0.60;;
67100;SDS011;54019;61.746;16.106;2023-02-18T11:14:43;1.48;;;0.40;;
67100;SDS011;54019;61.746;16.106;2023-02-18T11:17:16;4.20;;;0.40;;
67100;SDS011;54019;61.746;16.106;2023-02-18T11:19:50;5.38;;;0.60;;
67100;SDS011;54019;61.746;16.106;2023-02-18T11:22:19;5.45;;;0.70;;
67100;SDS011;54019;61.746;16.106;2023-02-18T11:24:47;4.65;;;0.80;;
67100;SDS011;54019;61.746;16.106;2023-02-18T11:27:16;3.47;;;0.50;;
67100;SDS011;54019;61.746;16.106;2023-02-18T11:29:47;6.72;;;0.50;;
67100;SDS011;54019;61.746;16.106;2023-02-18T11:32:16;0.57;;;0.30;;
67100;SDS011;54019;61.746;16.106;2023-02-18T11:34:42;6.45;;;0.80;;
67100;SDS011;54019;61.746;16.106;2023-02-18T11:37:09;7.65;;;0.65;;
67100;SDS011;54019;61.746;16.106;2023-02-18T11:39:41;4.55;;;0.60;;
67100;SDS011;54019;61.746;16.106;2023-02-18T11:42:10;3.92;;;0.40;;
67100;SDS011;54019;61.746;16.106;2023-02-18T11:44:40;7.70;;;0.65;;
67100;SDS011;54019;61.746;16.106;2023-02-18T11:47:20;3.05;;;0.45;;
67100;SDS011;54019;61.746;16.106;2023-02-18T11:50:01;2.10;;;0.40;;
67100;SDS011;54019;61.746;16.106;2023-02-18T11:52:40;3.42;;;0.47;;
67100;SDS011;54019;61.746;16.106;2023-02-18T11:55:07;2.50;;;0.32;;
67100;SDS011;54019;61.746;16.106;2023-02-18T11:57:41;4.22;;;0.40;;
67100;SDS011;54019;61.746;16.106;2023-02-18T12:00:14;7.35;;;0.40;;
67100;SDS011;54019;61.746;16.106;2023-02-18T12:02:45;6.47;;;0.65;;
67100;SDS011;54019;61.746;16.106;2023-02-18T12:05:13;6.50;;;0.70;;
67100;SDS011;54019;61.746;16.106;2023-02-18T12:07:43;4.57;;;0.30;;
67100;SDS011;54019;61.746;16.106;2023-02-18T12:10:11;2.33;;;0.45;;
67100;SDS011;54019;61.746;16.106;2023-02-18T12:12:45;11.17;;;0.50;;
67100;SDS011;54019;61.746;16.106;2023-02-18T12:15:17;8.10;;;0.50;;
67100;SDS011;54019;61.746;16.106;2023-02-18T12:17:59;3.58;;;0.30;;
67100;SDS011;54019;61.746;16.106;2023-02-18T12:20:41;4.38;;;0.30;;
67100;SDS011;54019;61.746;16.106;2023-02-18T12:23:20;2.45;;;0.40;;
67100;SDS011;54019;61.746;16.106;2023-02-18T12:25:52;6.55;;;0.50;;
67100;SDS011;54019;61.746;16.106;2023-02-18T12:28:28;6.35;;;0.85;;
67100;SDS011;54019;61.746;16.106;2023-02-18T12:31:09;4.20;;;0.60;;
67100;SDS011;54019;61.746;16.106;2023-02-18T12:33:47;1.80;;;0.40;;
67100;SDS011;54019;61.746;16.106;2023-02-18T12:36:23;1.75;;;0.50;;
67100;SDS011;54019;61.746;16.106;2023-02-18T12:39:01;8.55;;;0.75;;
67100;SDS011;54019;61.746;16.106;2023-02-18T12:41:40;13.93;;;0.80;;
67100;SDS011;54019;61.746;16.106;2023-02-18T12:44:21;3.60;;;0.45;;
67100;SDS011;54019;61.746;16.106;2023-02-18T12:47:01;3.05;;;0.45;;
67100;SDS011;54019;61.746;16.106;2023-02-18T12:53:17;2.38;;;0.35;;
67100;SDS011;54019;61.746;16.106;2023-02-18T12:56:11;1.65;;;0.30;;
67100;SDS011;54019;61.746;16.106;2023-02-18T12:58:59;2.25;;;0.35;;
67100;SDS011;54019;61.746;16.106;2023-02-18T13:01:38;2.50;;;0.40;;
67100;SDS011;54019;61.746;16.106;2023-02-18T13:04:14;1.48;;;0.50;;
67100;SDS011;54019;61.746;16.106;2023-02-18T13:07:06;0.98;;;0.25;;
67100;SDS011;54019;61.746;16.106;2023-02-18T13:10:03;2.17;;;0.60;;
67100;SDS011;54019;61.746;16.106;2023-02-18T13:12:42;1.45;;;0.30;;
67100;SDS011;54019;61.746;16.106;2023-02-18T13:15:12;0.73;;;0.32;;
67100;SDS011;54019;61.746;16.106;2023-02-18T13:17:43;1.25;;;0.50;;
67100;SDS011;54019;61.746;16.106;2023-02-18T13:20:12;1.67;;;0.63;;
67100;SDS011;54019;61.746;16.106;2023-02-18T13:22:44;1.40;;;0.50;;
67100;SDS011;54019;61.746;16.106;2023-02-18T13:25:12;0.57;;;0.30;;
67100;SDS011;54019;61.746;16.106;2023-02-18T13:27:40;2.42;;;0.30;;
67100;SDS011;54019;61.746;16.106;2023-02-18T13:30:15;0.80;;;0.40;;
67100;SDS011;54019;61.746;16.106;2023-02-18T13:32:48;2.83;;;0.65;;
67100;SDS011;54019;61.746;16.106;2023-02-18T13:35:24;1.88;;;0.40;;
67100;SDS011;54019;61.746;16.106;2023-02-18T13:37:58;1.98;;;0.40;;
67100;SDS011;54019;61.746;16.106;2023-02-18T13:40:45;3.03;;;0.60;;
67100;SDS011;54019;61.746;16.106;2023-02-18T13:43:18;4.80;;;0.65;;
67100;SDS011;54019;61.746;16.106;2023-02-18T13:46:01;3.60;;;0.70;;
67100;SDS011;54019;61.746;16.106;2023-02-18T13:48:33;3.75;;;0.60;;
67100;SDS011;54019;61.746;16.106;2023-02-18T13:51:04;6.32;;;0.65;;
67100;SDS011;54019;61.746;16.106;2023-02-18T13:53:31;2.70;;;0.60;;
67100;SDS011;54019;61.746;16.106;2023-02-18T13:56:03;4.68;;;0.75;;
67100;SDS011;54019;61.746;16.106;2023-02-18T13:58:34;3.83;;;0.70;;
67100;SDS011;54019;61.746;16.106;2023-02-18T14:01:03;3.03;;;0.60;;
67100;SDS011;54019;61.746;16.106;2023-02-18T14:03:49;1.77;;;0.45;;
67100;SDS011;54019;61.746;16.106;2023-02-18T14:06:17;3.08;;;0.70;;
67100;SDS011;54019;61.746;16.106;2023-02-18T14:08:44;2.25;;;0.40;;
67100;SDS011;54019;61.746;16.106;2023-02-18T14:11:30;1.30;;;0.50;;
67100;SDS011;54019;61.746;16.106;2023-02-18T14:19:53;0.75;;;0.50;;
67100;SDS011;54019;61.746;16.106;2023-02-18T14:22:26;1.50;;;0.55;;
67100;SDS011;54019;61.746;16.106;2023-02-18T14:24:55;0.98;;;0.40;;
67100;SDS011;54019;61.746;16.106;2023-02-18T14:27:25;1.00;;;0.50;;
67100;SDS011;54019;61.746;16.106;2023-02-18T14:29:51;1.27;;;0.38;;
67100;SDS011;54019;61.746;16.106;2023-02-18T14:32:18;0.93;;;0.40;;
67100;SDS011;54019;61.746;16.106;2023-02-18T14:37:49;0.57;;;0.30;;
67100;SDS011;54019;61.746;16.106;2023-02-18T14:40:57;1.52;;;0.30;;
67100;SDS011;54019;61.746;16.106;2023-02-18T14:43:43;1.90;;;0.30;;
67100;SDS011;54019;61.746;16.106;2023-02-18T14:46:33;1.67;;;0.50;;
67100;SDS011;54019;61.746;16.106;2023-02-18T14:49:10;2.05;;;0.32;;
67100;SDS011;54019;61.746;16.106;2023-02-18T14:51:44;1.70;;;0.40;;
67100;SDS011;54019;61.746;16.106;2023-02-18T14:54:12;0.45;;;0.20;;
67100;SDS011;54019;61.746;16.106;2023-02-18T14:56:44;0.75;;;0.20;;
67100;SDS011;54019;61.746;16.106;2023-02-18T14:59:18;0.45;;;0.32;;
67100;SDS011;54019;61.746;16.106;2023-02-18T15:01:46;2.53;;;0.40;;
67100;SDS011;54019;61.746;16.106;2023-02-18T15:04:12;0.82;;;0.40;;
67100;SDS011;54019;61.746;16.106;2023-02-18T15:06:39;0.40;;;0.20;;
67100;SDS011;54019;61.746;16.106;2023-02-18T15:09:11;0.65;;;0.30;;